BBC05C DTNH-DTTA
Flight info
| Callsign | BBC05C |
|---|---|
| Flight time | 0h 26m |
| Altitude | 13000 |
| Route | VAXAL1C VAXAL DCT RAMAM DCT ADRIL DCT JAMOR DCT MARSA |
| Aircraft | B738/M-SDE2E3FGHIRWXY/LB1 |
Departure
| Time | 2026-04-28 19:29 |
|---|---|
| Airport | Enfidha - Hammamet International Airport (DTNH) |
Arrival
| Time | 2026-04-28 19:56 |
|---|---|
| Airport | Tunis Carthage International Airport (DTTA) |
| Time | Latitude | Longitude | Altitude | Speed | Heading |
|---|---|---|---|---|---|
| 2026-04-28 18:45 | 36.08149 | 10.43952 | 28 ft | 0 kts | 342° |
| 2026-04-28 19:11 | 36.08148 | 10.43952 | 28 ft | 1 kts | 343° |
| 2026-04-28 19:11 | 36.08134 | 10.43960 | 29 ft | 2 kts | 322° |
| 2026-04-28 19:11 | 36.08123 | 10.43973 | 29 ft | 2 kts | 306° |
| 2026-04-28 19:12 | 36.08115 | 10.43990 | 29 ft | 2 kts | 288° |
| 2026-04-28 19:12 | 36.08112 | 10.44009 | 29 ft | 2 kts | 270° |
| 2026-04-28 19:12 | 36.08114 | 10.44028 | 29 ft | 2 kts | 253° |
| 2026-04-28 19:12 | 36.08120 | 10.44045 | 29 ft | 2 kts | 236° |
| 2026-04-28 19:13 | 36.08128 | 10.44057 | 29 ft | 0 kts | 223° |
| 2026-04-28 19:18 | 36.08125 | 10.44053 | 29 ft | 1 kts | 223° |
| 2026-04-28 19:18 | 36.08115 | 10.44040 | 29 ft | 2 kts | 226° |
| 2026-04-28 19:18 | 36.08102 | 10.44023 | 29 ft | 2 kts | 228° |
| 2026-04-28 19:19 | 36.08088 | 10.44004 | 29 ft | 3 kts | 226° |
| 2026-04-28 19:19 | 36.08072 | 10.43984 | 29 ft | 3 kts | 227° |
| 2026-04-28 19:19 | 36.08056 | 10.43957 | 29 ft | 4 kts | 242° |
| 2026-04-28 19:19 | 36.08047 | 10.43923 | 29 ft | 4 kts | 258° |
| 2026-04-28 19:20 | 36.08044 | 10.43887 | 29 ft | 4 kts | 266° |
| 2026-04-28 19:20 | 36.08044 | 10.43842 | 29 ft | 8 kts | 270° |
| 2026-04-28 19:20 | 36.08044 | 10.43731 | 29 ft | 16 kts | 270° |
| 2026-04-28 19:20 | 36.08046 | 10.43561 | 29 ft | 22 kts | 270° |
| 2026-04-28 19:21 | 36.08045 | 10.43356 | 29 ft | 23 kts | 270° |
| 2026-04-28 19:21 | 36.08048 | 10.43171 | 29 ft | 19 kts | 270° |
| 2026-04-28 19:21 | 36.08047 | 10.43016 | 29 ft | 15 kts | 270° |
| 2026-04-28 19:21 | 36.08048 | 10.42881 | 29 ft | 16 kts | 270° |
| 2026-04-28 19:22 | 36.08046 | 10.42744 | 29 ft | 12 kts | 256° |
| 2026-04-28 19:22 | 36.08032 | 10.42716 | 29 ft | 10 kts | 220° |
| 2026-04-28 19:22 | 36.07939 | 10.42695 | 29 ft | 5 kts | 180° |
| 2026-04-28 19:22 | 36.07905 | 10.42695 | 29 ft | 5 kts | 179° |
| 2026-04-28 19:23 | 36.07858 | 10.42695 | 29 ft | 8 kts | 179° |
| 2026-04-28 19:23 | 36.07790 | 10.42690 | 29 ft | 10 kts | 197° |
| 2026-04-28 19:23 | 36.07748 | 10.42611 | 29 ft | 12 kts | 269° |
| 2026-04-28 19:23 | 36.07750 | 10.42487 | 29 ft | 15 kts | 271° |
| 2026-04-28 19:24 | 36.07752 | 10.42350 | 29 ft | 14 kts | 270° |
| 2026-04-28 19:24 | 36.07753 | 10.42228 | 29 ft | 13 kts | 270° |
| 2026-04-28 19:24 | 36.07751 | 10.42111 | 29 ft | 13 kts | 262° |
| 2026-04-28 19:24 | 36.07703 | 10.42046 | 29 ft | 8 kts | 177° |
| 2026-04-28 19:25 | 36.07661 | 10.42046 | 29 ft | 4 kts | 180° |
| 2026-04-28 19:25 | 36.07658 | 10.42046 | 29 ft | 0 kts | 180° |
| 2026-04-28 19:27 | 36.07652 | 10.42046 | 29 ft | 2 kts | 179° |
| 2026-04-28 19:28 | 36.07610 | 10.42059 | 29 ft | 9 kts | 144° |
| 2026-04-28 19:28 | 36.07581 | 10.42161 | 29 ft | 18 kts | 92° |
| 2026-04-28 19:28 | 36.07579 | 10.42233 | 29 ft | 0 kts | 91° |
| 2026-04-28 19:28 | 36.07578 | 10.42336 | 29 ft | 54 kts | 91° |
| 2026-04-28 19:29 | 36.07573 | 10.43310 | 33 ft | 162 kts | 90° |
| 2026-04-28 19:29 | 36.07584 | 10.44367 | 360 ft | 195 kts | 89° |
| 2026-04-28 19:29 | 36.07545 | 10.46754 | 2021 ft | 219 kts | 92° |
| 2026-04-28 19:29 | 36.07492 | 10.48711 | 3209 ft | 240 kts | 92° |
| 2026-04-28 19:30 | 36.07412 | 10.50794 | 4721 ft | 245 kts | 93° |
| 2026-04-28 19:30 | 36.07280 | 10.52839 | 6329 ft | 242 kts | 96° |
| 2026-04-28 19:30 | 36.07056 | 10.54908 | 7636 ft | 247 kts | 100° |
| 2026-04-28 19:30 | 36.06626 | 10.57017 | 8725 ft | 257 kts | 108° |
| 2026-04-28 19:31 | 36.05938 | 10.59123 | 9769 ft | 265 kts | 114° |
| 2026-04-28 19:31 | 36.05353 | 10.61302 | 9939 ft | 267 kts | 95° |
| 2026-04-28 19:31 | 36.05683 | 10.63500 | 9794 ft | 250 kts | 59° |
| 2026-04-28 19:31 | 36.06943 | 10.64910 | 9798 ft | 241 kts | 22° |
| 2026-04-28 19:32 | 36.08585 | 10.65346 | 9807 ft | 238 kts | 2° |
| 2026-04-28 19:32 | 36.10267 | 10.65173 | 9790 ft | 237 kts | 347° |
| 2026-04-28 19:32 | 36.11871 | 10.64570 | 9803 ft | 236 kts | 339° |
| 2026-04-28 19:32 | 36.13295 | 10.63576 | 9804 ft | 236 kts | 323° |
| 2026-04-28 19:33 | 36.14640 | 10.62322 | 9803 ft | 236 kts | 324° |
| 2026-04-28 19:33 | 36.16037 | 10.61071 | 10179 ft | 255 kts | 324° |
| 2026-04-28 19:33 | 36.17451 | 10.59812 | 11441 ft | 248 kts | 324° |
| 2026-04-28 19:33 | 36.18859 | 10.58557 | 12064 ft | 251 kts | 324° |
| 2026-04-28 19:34 | 36.20297 | 10.57279 | 12023 ft | 250 kts | 324° |
| 2026-04-28 19:34 | 36.21721 | 10.56011 | 11997 ft | 246 kts | 324° |
| 2026-04-28 19:34 | 36.23134 | 10.54755 | 12000 ft | 246 kts | 324° |
| 2026-04-28 19:34 | 36.24522 | 10.53519 | 12000 ft | 247 kts | 324° |
| 2026-04-28 19:35 | 36.25941 | 10.52255 | 12000 ft | 247 kts | 324° |
| 2026-04-28 19:35 | 36.27398 | 10.51042 | 11997 ft | 247 kts | 333° |
| 2026-04-28 19:35 | 36.29043 | 10.50423 | 11998 ft | 247 kts | 357° |
| 2026-04-28 19:35 | 36.30756 | 10.50689 | 12006 ft | 247 kts | 15° |
| 2026-04-28 19:36 | 36.32415 | 10.51235 | 12005 ft | 247 kts | 14° |
| 2026-04-28 19:36 | 36.34129 | 10.51757 | 11999 ft | 247 kts | 14° |
| 2026-04-28 19:36 | 36.35817 | 10.52276 | 11999 ft | 247 kts | 14° |
| 2026-04-28 19:36 | 36.37511 | 10.52800 | 11999 ft | 247 kts | 14° |
| 2026-04-28 19:37 | 36.39189 | 10.53319 | 11999 ft | 247 kts | 14° |
| 2026-04-28 19:37 | 36.40311 | 10.53667 | 11999 ft | 247 kts | 14° |
| 2026-04-28 19:37 | 36.42572 | 10.54368 | 12000 ft | 247 kts | 14° |
| 2026-04-28 19:37 | 36.44278 | 10.54897 | 11999 ft | 247 kts | 14° |
| 2026-04-28 19:38 | 36.45987 | 10.55427 | 11999 ft | 247 kts | 14° |
| 2026-04-28 19:38 | 36.47681 | 10.55952 | 11999 ft | 247 kts | 14° |
| 2026-04-28 19:38 | 36.49374 | 10.56478 | 11999 ft | 247 kts | 14° |
| 2026-04-28 19:38 | 36.51051 | 10.56998 | 12000 ft | 247 kts | 14° |
| 2026-04-28 19:39 | 36.52753 | 10.57527 | 11999 ft | 247 kts | 14° |
| 2026-04-28 19:39 | 36.54440 | 10.58052 | 11999 ft | 247 kts | 14° |
| 2026-04-28 19:39 | 36.56126 | 10.58576 | 12000 ft | 247 kts | 14° |
| 2026-04-28 19:39 | 36.57859 | 10.58923 | 11991 ft | 247 kts | 356° |
| 2026-04-28 19:40 | 36.59500 | 10.58250 | 12002 ft | 246 kts | 329° |
| 2026-04-28 19:40 | 36.60992 | 10.57136 | 12008 ft | 247 kts | 332° |
| 2026-04-28 19:40 | 36.62551 | 10.56150 | 11912 ft | 244 kts | 334° |
| 2026-04-28 19:40 | 36.64111 | 10.55214 | 11593 ft | 243 kts | 334° |
| 2026-04-28 19:41 | 36.65622 | 10.54315 | 11343 ft | 239 kts | 335° |
| 2026-04-28 19:41 | 36.67153 | 10.53420 | 11054 ft | 237 kts | 337° |
| 2026-04-28 19:41 | 36.68770 | 10.52868 | 10719 ft | 238 kts | 356° |
| 2026-04-28 19:41 | 36.70443 | 10.53108 | 10287 ft | 242 kts | 19° |
| 2026-04-28 19:42 | 36.71954 | 10.54091 | 9862 ft | 245 kts | 38° |
| 2026-04-28 19:42 | 36.73121 | 10.55682 | 9434 ft | 248 kts | 58° |
| 2026-04-28 19:42 | 36.73999 | 10.57578 | 9006 ft | 250 kts | 60° |
| 2026-04-28 19:42 | 36.74598 | 10.58868 | 8713 ft | 252 kts | 60° |
| 2026-04-28 19:43 | 36.75883 | 10.61357 | 8132 ft | 255 kts | 47° |
| 2026-04-28 19:43 | 36.77360 | 10.62596 | 7695 ft | 255 kts | 18° |
| 2026-04-28 19:43 | 36.79152 | 10.62777 | 7260 ft | 256 kts | 349° |
| 2026-04-28 19:43 | 36.80793 | 10.61957 | 7003 ft | 249 kts | 332° |
| 2026-04-28 19:44 | 36.82303 | 10.60958 | 6987 ft | 233 kts | 333° |
| 2026-04-28 19:44 | 36.83739 | 10.60033 | 6990 ft | 221 kts | 333° |
| 2026-04-28 19:44 | 36.85119 | 10.59142 | 7002 ft | 222 kts | 333° |
| 2026-04-28 19:44 | 36.86522 | 10.58236 | 7001 ft | 223 kts | 333° |
| 2026-04-28 19:45 | 36.87918 | 10.57335 | 7000 ft | 223 kts | 333° |
| 2026-04-28 19:45 | 36.89324 | 10.56427 | 6996 ft | 222 kts | 333° |
| 2026-04-28 19:45 | 36.90730 | 10.55519 | 6712 ft | 221 kts | 333° |
| 2026-04-28 19:45 | 36.92098 | 10.54635 | 6408 ft | 217 kts | 333° |
| 2026-04-28 19:46 | 36.93451 | 10.53761 | 6067 ft | 213 kts | 333° |
| 2026-04-28 19:46 | 36.94792 | 10.52894 | 5595 ft | 213 kts | 333° |
| 2026-04-28 19:46 | 36.96126 | 10.52032 | 5166 ft | 212 kts | 333° |
| 2026-04-28 19:46 | 36.97443 | 10.51181 | 4750 ft | 210 kts | 333° |
| 2026-04-28 19:47 | 36.98766 | 10.50325 | 4328 ft | 209 kts | 333° |
| 2026-04-28 19:47 | 37.00055 | 10.49480 | 3915 ft | 208 kts | 331° |
| 2026-04-28 19:47 | 37.01187 | 10.48345 | 3485 ft | 206 kts | 313° |
| 2026-04-28 19:47 | 37.02131 | 10.47036 | 3232 ft | 192 kts | 313° |
| 2026-04-28 19:48 | 37.03050 | 10.45789 | 2852 ft | 188 kts | 313° |
| 2026-04-28 19:48 | 37.03823 | 10.44489 | 2453 ft | 185 kts | 295° |
| 2026-04-28 19:48 | 37.04311 | 10.43001 | 2106 ft | 179 kts | 293° |
| 2026-04-28 19:48 | 37.04807 | 10.41517 | 2027 ft | 180 kts | 293° |
| 2026-04-28 19:49 | 37.05298 | 10.40044 | 2028 ft | 181 kts | 293° |
| 2026-04-28 19:49 | 37.05793 | 10.38557 | 2025 ft | 182 kts | 293° |
| 2026-04-28 19:49 | 37.06286 | 10.37079 | 2025 ft | 182 kts | 293° |
| 2026-04-28 19:49 | 37.06782 | 10.35590 | 2025 ft | 182 kts | 293° |
| 2026-04-28 19:50 | 37.07731 | 10.32576 | 2021 ft | 182 kts | 281° |
| 2026-04-28 19:50 | 37.07562 | 10.31010 | 2022 ft | 180 kts | 241° |
| 2026-04-28 19:50 | 37.06719 | 10.29862 | 2043 ft | 176 kts | 220° |
| 2026-04-28 19:51 | 37.05781 | 10.28855 | 2027 ft | 174 kts | 213° |
| 2026-04-28 19:51 | 37.04650 | 10.28278 | 2042 ft | 174 kts | 197° |
| 2026-04-28 19:51 | 37.03463 | 10.27820 | 2024 ft | 173 kts | 197° |
| 2026-04-28 19:51 | 37.02301 | 10.27417 | 2023 ft | 172 kts | 193° |
| 2026-04-28 19:52 | 37.01112 | 10.27074 | 2025 ft | 171 kts | 192° |
| 2026-04-28 19:52 | 36.99940 | 10.26749 | 2024 ft | 171 kts | 192° |
| 2026-04-28 19:52 | 36.98744 | 10.26421 | 2025 ft | 171 kts | 192° |
| 2026-04-28 19:52 | 36.97564 | 10.26098 | 2025 ft | 171 kts | 192° |
| 2026-04-28 19:53 | 36.96386 | 10.25776 | 1965 ft | 174 kts | 192° |
| 2026-04-28 19:53 | 36.95206 | 10.25454 | 1744 ft | 170 kts | 192° |
| 2026-04-28 19:53 | 36.94059 | 10.25141 | 1520 ft | 164 kts | 192° |
| 2026-04-28 19:53 | 36.92955 | 10.24840 | 1292 ft | 152 kts | 192° |
| 2026-04-28 19:54 | 36.91964 | 10.24569 | 1091 ft | 133 kts | 192° |
| 2026-04-28 19:54 | 36.91085 | 10.24329 | 935 ft | 129 kts | 192° |
| 2026-04-28 19:54 | 36.90189 | 10.24085 | 764 ft | 130 kts | 192° |
| 2026-04-28 19:54 | 36.89286 | 10.23839 | 583 ft | 130 kts | 192° |
| 2026-04-28 19:55 | 36.88396 | 10.23597 | 407 ft | 129 kts | 192° |
| 2026-04-28 19:55 | 36.87503 | 10.23353 | 232 ft | 129 kts | 192° |
| 2026-04-28 19:55 | 36.86630 | 10.23115 | 63 ft | 129 kts | 192° |
| 2026-04-28 19:55 | 36.85835 | 10.22899 | 30 ft | 91 kts | 192° |
| 2026-04-28 19:56 | 36.85379 | 10.22775 | 29 ft | 42 kts | 192° |
| 2026-04-28 19:56 | 36.85238 | 10.22735 | 29 ft | 0 kts | 192° |
| 2026-04-28 19:56 | 36.85215 | 10.22729 | 29 ft | 6 kts | 192° |
| 2026-04-28 19:56 | 36.85146 | 10.22710 | 29 ft | 13 kts | 192° |
| 2026-04-28 19:57 | 36.85037 | 10.22679 | 29 ft | 17 kts | 192° |
| 2026-04-28 19:57 | 36.84907 | 10.22643 | 29 ft | 20 kts | 192° |
| 2026-04-28 19:57 | 36.84766 | 10.22606 | 29 ft | 20 kts | 192° |
| 2026-04-28 19:57 | 36.84647 | 10.22563 | 29 ft | 15 kts | 201° |
| 2026-04-28 19:58 | 36.84564 | 10.22505 | 29 ft | 12 kts | 218° |
| 2026-04-28 19:58 | 36.84510 | 10.22426 | 29 ft | 1 kts | 242° |
| 2026-04-28 19:59 | 36.84501 | 10.22399 | 29 ft | 8 kts | 246° |
| 2026-04-28 20:00 | 36.84482 | 10.22280 | 29 ft | 17 kts | 275° |
| 2026-04-28 20:00 | 36.84500 | 10.22109 | 29 ft | 19 kts | 257° |
| 2026-04-28 20:00 | 36.84432 | 10.21978 | 29 ft | 16 kts | 218° |
| 2026-04-28 20:00 | 36.84342 | 10.21938 | 29 ft | 11 kts | 192° |
| 2026-04-28 20:01 | 36.84278 | 10.21920 | 29 ft | 6 kts | 216° |
| 2026-04-28 20:01 | 36.84266 | 10.21878 | 29 ft | 3 kts | 265° |
| 2026-04-28 20:01 | 36.84267 | 10.21857 | 29 ft | 1 kts | 279° |
| 2026-04-28 20:01 | 36.84269 | 10.21846 | 29 ft | 1 kts | 281° |
| 2026-04-28 20:02 | 36.84272 | 10.21827 | 29 ft | 2 kts | 283° |
| 2026-04-28 20:02 | 36.84273 | 10.21824 | 29 ft | 0 kts | 283° |